Terminal Aerodrome Forecast
Issued by NWS North Platte, NE

Home | Current Version | Previous Version | Text Only | Print | Product List | Glossary Off
Versions: 1 2 3 4 5 6 7 8 9 10 11 12 13 14 15 16 17 18 19

000
FTUS43 KLBF 290900 AAA
TAFVTN
TAF AMD
KVTN 290902Z 2909/3006 28007KT P6SM SKC
     FM291200 31024G32KT P6SM BKN080
     FM291400 32026G37KT P6SM BKN080
     FM292100 33017G25KT P6SM SKC
     FM300100 VRB06KT P6SM SKC=

USA.gov is the U.S. government's official web portal to all federal, state and local government web resources and services.